ESSB/BMA METAR and TAF weather

Enter ICAO airport designator
Station Type Date Time Source
ESSB METAR 2018/12/10 17:50 UTC NOAA

ESSB 101750Z 35004KT 9999 -SN OVC005 00/M00 Q0999 R30/19//71


Station Type Date Time Source
ESSB Decoded METAR 2018/12/10 17:50 UTC NOAA

Stockholm / Bromma, Sweden (ESSB) 59-21N 017-57E 14M
Dec 10, 2018 - 12:50 PM EST / 2018.12.10 1750 UTC
Wind: from the N (350 degrees) at 5 MPH (4 KT):0
Visibility: greater than 7 mile(s):0
Sky conditions: overcast
Weather: light snow
Temperature: 32 F (0 C)
Windchill: 26 F (-3 C):1
Dew Point: 32 F (0 C)
Relative Humidity: 100%
Pressure (altimeter): 29.50 in. Hg (0999 hPa)
ob: ESSB 101750Z 35004KT 9999 -SN OVC005 00/M00 Q0999 R30/19//71
cycle: 18

Station Type Date Time Source
ESSB TAF 2017/03/27 06:35 UTC NOAA

TAF ESSB 270530Z 2706/2724 27008KT CAVOK
BECMG 2710/2713 29015G25KT


Example: see airport list